sensor_id;sensor_type;location;lat;lon;timestamp;temperature;humidity
3684;DHT22;1858;48.716;9.648;2023-05-10T00:02:21;16.40;99.90
3684;DHT22;1858;48.716;9.648;2023-05-10T00:04:49;16.40;99.90
3684;DHT22;1858;48.716;9.648;2023-05-10T00:07:18;16.30;99.90
3684;DHT22;1858;48.716;9.648;2023-05-10T00:09:46;16.30;99.90
3684;DHT22;1858;48.716;9.648;2023-05-10T00:12:14;16.20;99.90
3684;DHT22;1858;48.716;9.648;2023-05-10T00:14:43;16.00;99.90
3684;DHT22;1858;48.716;9.648;2023-05-10T00:17:12;16.00;99.90
3684;DHT22;1858;48.716;9.648;2023-05-10T00:19:40;16.00;99.90
3684;DHT22;1858;48.716;9.648;2023-05-10T00:22:09;16.00;99.90
3684;DHT22;1858;48.716;9.648;2023-05-10T00:24:37;16.00;99.90
3684;DHT22;1858;48.716;9.648;2023-05-10T00:27:06;15.90;99.90
3684;DHT22;1858;48.716;9.648;2023-05-10T00:29:34;15.90;99.90
3684;DHT22;1858;48.716;9.648;2023-05-10T00:32:03;15.80;99.90
3684;DHT22;1858;48.716;9.648;2023-05-10T00:34:31;15.80;99.90
3684;DHT22;1858;48.716;9.648;2023-05-10T00:36:59;15.80;99.90
3684;DHT22;1858;48.716;9.648;2023-05-10T00:39:28;15.70;99.90
3684;DHT22;1858;48.716;9.648;2023-05-10T00:41:57;15.70;99.90
3684;DHT22;1858;48.716;9.648;2023-05-10T00:44:25;15.60;99.90
3684;DHT22;1858;48.716;9.648;2023-05-10T00:46:54;15.60;99.90
3684;DHT22;1858;48.716;9.648;2023-05-10T00:49:23;15.60;99.90
3684;DHT22;1858;48.716;9.648;2023-05-10T00:51:51;15.50;99.90
3684;DHT22;1858;48.716;9.648;2023-05-10T00:54:20;15.50;1.00
3684;DHT22;1858;48.716;9.648;2023-05-10T00:56:49;15.60;1.00
3684;DHT22;1858;48.716;9.648;2023-05-10T00:59:18;15.60;1.00
3684;DHT22;1858;48.716;9.648;2023-05-10T01:01:47;15.60;1.00
3684;DHT22;1858;48.716;9.648;2023-05-10T01:04:16;15.60;1.00
3684;DHT22;1858;48.716;9.648;2023-05-10T01:06:47;15.60;1.00
3684;DHT22;1858;48.716;9.648;2023-05-10T01:09:15;15.70;1.00
3684;DHT22;1858;48.716;9.648;2023-05-10T01:11:47;15.80;1.00
3684;DHT22;1858;48.716;9.648;2023-05-10T01:14:18;15.60;1.00
3684;DHT22;1858;48.716;9.648;2023-05-10T01:16:49;15.60;1.00
3684;DHT22;1858;48.716;9.648;2023-05-10T01:19:21;15.50;1.00
3684;DHT22;1858;48.716;9.648;2023-05-10T01:22:00;15.60;1.00
3684;DHT22;1858;48.716;9.648;2023-05-10T01:35:32;15.40;99.90
3684;DHT22;1858;48.716;9.648;2023-05-10T01:38:10;15.40;99.90
3684;DHT22;1858;48.716;9.648;2023-05-10T01:46:43;15.20;99.90
3684;DHT22;1858;48.716;9.648;2023-05-10T01:49:29;15.20;99.90
3684;DHT22;1858;48.716;9.648;2023-05-10T01:52:00;15.20;99.90
3684;DHT22;1858;48.716;9.648;2023-05-10T01:54:29;15.20;99.90
3684;DHT22;1858;48.716;9.648;2023-05-10T01:57:02;15.20;99.90
3684;DHT22;1858;48.716;9.648;2023-05-10T01:59:34;15.20;99.90
3684;DHT22;1858;48.716;9.648;2023-05-10T02:02:07;15.10;70.50
3684;DHT22;1858;48.716;9.648;2023-05-10T02:04:39;15.00;39.80
3684;DHT22;1858;48.716;9.648;2023-05-10T02:07:09;15.00;86.40
3684;DHT22;1858;48.716;9.648;2023-05-10T02:09:38;15.00;83.00
3684;DHT22;1858;48.716;9.648;2023-05-10T02:12:08;15.00;85.60
3684;DHT22;1858;48.716;9.648;2023-05-10T02:14:37;14.90;99.90
3684;DHT22;1858;48.716;9.648;2023-05-10T02:17:08;14.90;99.90
3684;DHT22;1858;48.716;9.648;2023-05-10T02:19:39;14.90;99.90
3684;DHT22;1858;48.716;9.648;2023-05-10T02:22:09;14.80;99.90
3684;DHT22;1858;48.716;9.648;2023-05-10T02:24:39;14.80;99.90
3684;DHT22;1858;48.716;9.648;2023-05-10T02:27:09;14.80;99.90
3684;DHT22;1858;48.716;9.648;2023-05-10T02:29:38;14.80;99.90
3684;DHT22;1858;48.716;9.648;2023-05-10T02:32:07;14.80;99.90
3684;DHT22;1858;48.716;9.648;2023-05-10T02:34:38;14.80;99.90
3684;DHT22;1858;48.716;9.648;2023-05-10T02:37:07;14.90;99.90
3684;DHT22;1858;48.716;9.648;2023-05-10T02:39:36;14.90;99.90
3684;DHT22;1858;48.716;9.648;2023-05-10T02:42:06;14.80;99.90
3684;DHT22;1858;48.716;9.648;2023-05-10T02:44:35;14.80;99.90
3684;DHT22;1858;48.716;9.648;2023-05-10T02:47:04;14.80;99.90
3684;DHT22;1858;48.716;9.648;2023-05-10T02:49:33;14.70;99.90
3684;DHT22;1858;48.716;9.648;2023-05-10T02:52:05;14.70;99.90
3684;DHT22;1858;48.716;9.648;2023-05-10T02:54:41;14.70;99.90
3684;DHT22;1858;48.716;9.648;2023-05-10T02:57:06;14.70;99.90
3684;DHT22;1858;48.716;9.648;2023-05-10T02:59:35;14.70;99.90
3684;DHT22;1858;48.716;9.648;2023-05-10T03:02:04;14.70;99.90
3684;DHT22;1858;48.716;9.648;2023-05-10T03:04:32;14.60;99.90
3684;DHT22;1858;48.716;9.648;2023-05-10T03:07:01;14.60;99.90
3684;DHT22;1858;48.716;9.648;2023-05-10T03:09:31;14.60;99.90
3684;DHT22;1858;48.716;9.648;2023-05-10T03:12:21;14.60;99.90
3684;DHT22;1858;48.716;9.648;2023-05-10T03:15:13;14.60;99.90
3684;DHT22;1858;48.716;9.648;2023-05-10T03:18:18;14.50;99.90
3684;DHT22;1858;48.716;9.648;2023-05-10T03:20:51;14.50;99.90
3684;DHT22;1858;48.716;9.648;2023-05-10T03:23:23;14.50;99.90
3684;DHT22;1858;48.716;9.648;2023-05-10T03:28:42;14.50;99.90
3684;DHT22;1858;48.716;9.648;2023-05-10T03:31:10;14.50;99.90
3684;DHT22;1858;48.716;9.648;2023-05-10T03:33:49;14.50;99.90
3684;DHT22;1858;48.716;9.648;2023-05-10T03:36:18;14.50;99.90
3684;DHT22;1858;48.716;9.648;2023-05-10T03:38:47;14.50;99.90
3684;DHT22;1858;48.716;9.648;2023-05-10T03:41:15;14.50;99.90
3684;DHT22;1858;48.716;9.648;2023-05-10T03:43:44;14.50;99.90
3684;DHT22;1858;48.716;9.648;2023-05-10T03:46:14;14.50;99.90
3684;DHT22;1858;48.716;9.648;2023-05-10T03:48:43;14.60;99.90
3684;DHT22;1858;48.716;9.648;2023-05-10T03:51:12;14.60;99.90
3684;DHT22;1858;48.716;9.648;2023-05-10T03:53:40;14.60;99.90
3684;DHT22;1858;48.716;9.648;2023-05-10T03:56:09;14.60;99.90
3684;DHT22;1858;48.716;9.648;2023-05-10T03:58:38;14.60;99.90
3684;DHT22;1858;48.716;9.648;2023-05-10T04:01:06;14.60;99.90
3684;DHT22;1858;48.716;9.648;2023-05-10T04:03:37;14.60;99.90
3684;DHT22;1858;48.716;9.648;2023-05-10T04:06:08;14.70;99.90
3684;DHT22;1858;48.716;9.648;2023-05-10T04:08:39;14.80;99.90
3684;DHT22;1858;48.716;9.648;2023-05-10T04:11:09;14.70;99.90
3684;DHT22;1858;48.716;9.648;2023-05-10T04:13:40;14.80;99.90
3684;DHT22;1858;48.716;9.648;2023-05-10T04:16:10;14.80;99.90
3684;DHT22;1858;48.716;9.648;2023-05-10T04:18:40;14.80;99.90
3684;DHT22;1858;48.716;9.648;2023-05-10T04:21:13;14.90;99.90
3684;DHT22;1858;48.716;9.648;2023-05-10T04:23:43;14.80;99.90
3684;DHT22;1858;48.716;9.648;2023-05-10T04:26:13;14.80;99.90
3684;DHT22;1858;48.716;9.648;2023-05-10T04:28:44;14.80;99.90
3684;DHT22;1858;48.716;9.648;2023-05-10T04:31:13;14.80;99.90
3684;DHT22;1858;48.716;9.648;2023-05-10T04:33:49;14.90;99.90
3684;DHT22;1858;48.716;9.648;2023-05-10T04:36:16;15.00;99.90
3684;DHT22;1858;48.716;9.648;2023-05-10T04:38:45;15.10;99.90
3684;DHT22;1858;48.716;9.648;2023-05-10T04:41:16;15.20;99.90
3684;DHT22;1858;48.716;9.648;2023-05-10T04:43:46;15.30;99.90
3684;DHT22;1858;48.716;9.648;2023-05-10T04:46:18;15.20;99.90
3684;DHT22;1858;48.716;9.648;2023-05-10T04:48:49;15.00;99.90
3684;DHT22;1858;48.716;9.648;2023-05-10T04:51:17;15.10;99.90
3684;DHT22;1858;48.716;9.648;2023-05-10T04:53:46;15.10;99.90
3684;DHT22;1858;48.716;9.648;2023-05-10T04:56:16;15.10;99.90
3684;DHT22;1858;48.716;9.648;2023-05-10T04:58:45;15.10;99.90
3684;DHT22;1858;48.716;9.648;2023-05-10T05:01:15;15.20;99.90
3684;DHT22;1858;48.716;9.648;2023-05-10T05:03:50;15.20;99.90
3684;DHT22;1858;48.716;9.648;2023-05-10T05:06:15;15.30;99.90
3684;DHT22;1858;48.716;9.648;2023-05-10T05:08:44;15.40;99.90
3684;DHT22;1858;48.716;9.648;2023-05-10T05:11:14;15.40;99.90
3684;DHT22;1858;48.716;9.648;2023-05-10T05:13:44;15.40;99.90
3684;DHT22;1858;48.716;9.648;2023-05-10T05:16:14;15.50;99.90
3684;DHT22;1858;48.716;9.648;2023-05-10T05:18:47;15.50;11.50
3684;DHT22;1858;48.716;9.648;2023-05-10T05:21:19;15.60;27.10
3684;DHT22;1858;48.716;9.648;2023-05-10T05:23:49;15.60;54.70
3684;DHT22;1858;48.716;9.648;2023-05-10T05:26:25;15.50;1.00
3684;DHT22;1858;48.716;9.648;2023-05-10T05:28:54;15.70;1.00
3684;DHT22;1858;48.716;9.648;2023-05-10T05:31:23;15.50;1.00
3684;DHT22;1858;48.716;9.648;2023-05-10T05:33:52;15.60;1.00
3684;DHT22;1858;48.716;9.648;2023-05-10T05:36:21;15.60;1.00
3684;DHT22;1858;48.716;9.648;2023-05-10T05:38:50;15.60;1.00
3684;DHT22;1858;48.716;9.648;2023-05-10T05:41:18;15.70;1.00
3684;DHT22;1858;48.716;9.648;2023-05-10T05:43:47;15.60;1.00
3684;DHT22;1858;48.716;9.648;2023-05-10T05:46:19;15.50;1.00
3684;DHT22;1858;48.716;9.648;2023-05-10T05:48:48;15.50;1.00
3684;DHT22;1858;48.716;9.648;2023-05-10T05:51:23;15.50;1.00
3684;DHT22;1858;48.716;9.648;2023-05-10T05:53:52;15.50;1.00
3684;DHT22;1858;48.716;9.648;2023-05-10T05:56:23;15.60;40.70
3684;DHT22;1858;48.716;9.648;2023-05-10T05:58:54;15.70;48.80
3684;DHT22;1858;48.716;9.648;2023-05-10T06:01:24;15.70;1.00
3684;DHT22;1858;48.716;9.648;2023-05-10T06:03:53;15.80;1.00
3684;DHT22;1858;48.716;9.648;2023-05-10T06:06:22;15.80;1.00
3684;DHT22;1858;48.716;9.648;2023-05-10T06:08:53;15.80;1.00
3684;DHT22;1858;48.716;9.648;2023-05-10T06:11:21;15.80;1.00
3684;DHT22;1858;48.716;9.648;2023-05-10T06:13:50;15.70;1.00
3684;DHT22;1858;48.716;9.648;2023-05-10T06:16:18;15.80;1.00
3684;DHT22;1858;48.716;9.648;2023-05-10T06:18:47;15.80;1.00
3684;DHT22;1858;48.716;9.648;2023-05-10T06:21:17;15.80;1.00
3684;DHT22;1858;48.716;9.648;2023-05-10T06:23:48;15.90;1.00
3684;DHT22;1858;48.716;9.648;2023-05-10T06:26:21;15.80;1.00
3684;DHT22;1858;48.716;9.648;2023-05-10T06:28:51;15.80;1.00
3684;DHT22;1858;48.716;9.648;2023-05-10T06:31:20;15.90;1.00
3684;DHT22;1858;48.716;9.648;2023-05-10T06:33:53;16.10;1.00
3684;DHT22;1858;48.716;9.648;2023-05-10T06:36:27;16.00;1.00
3684;DHT22;1858;48.716;9.648;2023-05-10T06:38:55;16.10;1.00
3684;DHT22;1858;48.716;9.648;2023-05-10T06:41:23;16.20;1.00
3684;DHT22;1858;48.716;9.648;2023-05-10T06:43:53;16.20;1.00
3684;DHT22;1858;48.716;9.648;2023-05-10T06:46:37;16.30;1.00
3684;DHT22;1858;48.716;9.648;2023-05-10T06:49:06;16.30;99.90
3684;DHT22;1858;48.716;9.648;2023-05-10T06:51:36;16.30;1.00
3684;DHT22;1858;48.716;9.648;2023-05-10T06:54:05;16.30;1.00
3684;DHT22;1858;48.716;9.648;2023-05-10T06:56:38;16.40;1.00
3684;DHT22;1858;48.716;9.648;2023-05-10T06:59:13;16.40;1.00
3684;DHT22;1858;48.716;9.648;2023-05-10T07:01:52;16.50;99.90
3684;DHT22;1858;48.716;9.648;2023-05-10T07:04:21;16.50;99.90
3684;DHT22;1858;48.716;9.648;2023-05-10T07:06:51;16.50;99.90
3684;DHT22;1858;48.716;9.648;2023-05-10T07:09:24;16.60;99.90
3684;DHT22;1858;48.716;9.648;2023-05-10T07:11:58;16.60;99.90
3684;DHT22;1858;48.716;9.648;2023-05-10T07:14:30;16.70;99.90
3684;DHT22;1858;48.716;9.648;2023-05-10T07:17:01;16.80;99.90
3684;DHT22;1858;48.716;9.648;2023-05-10T07:19:33;16.80;99.90
3684;DHT22;1858;48.716;9.648;2023-05-10T07:22:08;16.80;99.90
3684;DHT22;1858;48.716;9.648;2023-05-10T07:24:37;16.90;99.90
3684;DHT22;1858;48.716;9.648;2023-05-10T07:27:07;16.90;99.90
3684;DHT22;1858;48.716;9.648;2023-05-10T07:29:36;16.80;99.90
3684;DHT22;1858;48.716;9.648;2023-05-10T07:32:07;16.80;99.90
3684;DHT22;1858;48.716;9.648;2023-05-10T07:34:38;16.80;99.90
3684;DHT22;1858;48.716;9.648;2023-05-10T07:37:09;16.80;99.90
3684;DHT22;1858;48.716;9.648;2023-05-10T07:39:47;16.70;99.90
3684;DHT22;1858;48.716;9.648;2023-05-10T07:42:16;16.60;99.90
3684;DHT22;1858;48.716;9.648;2023-05-10T07:44:48;16.60;99.90
3684;DHT22;1858;48.716;9.648;2023-05-10T07:47:18;16.60;99.90
3684;DHT22;1858;48.716;9.648;2023-05-10T07:49:47;16.60;99.90
3684;DHT22;1858;48.716;9.648;2023-05-10T07:52:22;16.60;99.90
3684;DHT22;1858;48.716;9.648;2023-05-10T07:54:54;16.70;99.90
3684;DHT22;1858;48.716;9.648;2023-05-10T07:57:24;16.80;99.90
3684;DHT22;1858;48.716;9.648;2023-05-10T07:59:56;16.60;99.90
3684;DHT22;1858;48.716;9.648;2023-05-10T08:02:25;16.70;99.90
3684;DHT22;1858;48.716;9.648;2023-05-10T08:04:54;16.60;99.90
3684;DHT22;1858;48.716;9.648;2023-05-10T08:07:32;16.60;99.90
3684;DHT22;1858;48.716;9.648;2023-05-10T08:09:57;16.50;99.90
3684;DHT22;1858;48.716;9.648;2023-05-10T08:12:25;16.60;99.90
3684;DHT22;1858;48.716;9.648;2023-05-10T08:14:54;16.70;99.90
3684;DHT22;1858;48.716;9.648;2023-05-10T08:17:23;17.00;99.90
3684;DHT22;1858;48.716;9.648;2023-05-10T08:19:52;17.30;99.90
3684;DHT22;1858;48.716;9.648;2023-05-10T08:22:21;17.60;99.90
3684;DHT22;1858;48.716;9.648;2023-05-10T08:24:55;17.90;99.90
3684;DHT22;1858;48.716;9.648;2023-05-10T08:27:29;18.30;45.50
3684;DHT22;1858;48.716;9.648;2023-05-10T08:30:00;18.40;50.70
3684;DHT22;1858;48.716;9.648;2023-05-10T08:32:29;18.70;46.60
3684;DHT22;1858;48.716;9.648;2023-05-10T08:35:00;18.90;1.00
3684;DHT22;1858;48.716;9.648;2023-05-10T08:37:33;19.10;1.00
3684;DHT22;1858;48.716;9.648;2023-05-10T08:40:04;19.20;1.00
3684;DHT22;1858;48.716;9.648;2023-05-10T08:42:36;19.10;1.00
3684;DHT22;1858;48.716;9.648;2023-05-10T08:45:09;19.20;1.00
3684;DHT22;1858;48.716;9.648;2023-05-10T08:47:49;19.30;1.00
3684;DHT22;1858;48.716;9.648;2023-05-10T08:50:25;19.30;1.00
3684;DHT22;1858;48.716;9.648;2023-05-10T08:52:56;19.00;1.00
3684;DHT22;1858;48.716;9.648;2023-05-10T08:55:26;19.20;1.00
3684;DHT22;1858;48.716;9.648;2023-05-10T08:57:56;19.30;1.00
3684;DHT22;1858;48.716;9.648;2023-05-10T09:00:26;19.40;1.00
3684;DHT22;1858;48.716;9.648;2023-05-10T09:03:02;19.50;1.00
3684;DHT22;1858;48.716;9.648;2023-05-10T09:05:27;19.60;1.00
3684;DHT22;1858;48.716;9.648;2023-05-10T09:07:57;19.70;1.00
3684;DHT22;1858;48.716;9.648;2023-05-10T09:10:34;19.60;1.00
3684;DHT22;1858;48.716;9.648;2023-05-10T09:13:02;19.40;1.00
3684;DHT22;1858;48.716;9.648;2023-05-10T09:15:31;19.20;1.00
3684;DHT22;1858;48.716;9.648;2023-05-10T09:18:00;19.20;1.00
3684;DHT22;1858;48.716;9.648;2023-05-10T09:20:30;19.10;1.00
3684;DHT22;1858;48.716;9.648;2023-05-10T09:23:03;19.00;1.00
3684;DHT22;1858;48.716;9.648;2023-05-10T09:25:35;19.10;1.00
3684;DHT22;1858;48.716;9.648;2023-05-10T09:28:09;19.10;1.00
3684;DHT22;1858;48.716;9.648;2023-05-10T09:30:39;19.00;1.00
3684;DHT22;1858;48.716;9.648;2023-05-10T09:33:13;18.90;1.00
3684;DHT22;1858;48.716;9.648;2023-05-10T09:35:52;18.80;1.00
3684;DHT22;1858;48.716;9.648;2023-05-10T09:38:25;18.80;1.00
3684;DHT22;1858;48.716;9.648;2023-05-10T09:40:57;18.70;1.00
3684;DHT22;1858;48.716;9.648;2023-05-10T09:43:26;18.80;1.00
3684;DHT22;1858;48.716;9.648;2023-05-10T09:45:55;18.90;1.00
3684;DHT22;1858;48.716;9.648;2023-05-10T09:48:31;18.90;1.00
3684;DHT22;1858;48.716;9.648;2023-05-10T09:50:57;18.90;1.00
3684;DHT22;1858;48.716;9.648;2023-05-10T09:53:26;18.90;1.00
3684;DHT22;1858;48.716;9.648;2023-05-10T09:55:55;18.80;1.00
3684;DHT22;1858;48.716;9.648;2023-05-10T09:58:26;18.50;1.00
3684;DHT22;1858;48.716;9.648;2023-05-10T10:00:58;18.30;1.00
3684;DHT22;1858;48.716;9.648;2023-05-10T10:03:30;18.20;1.00
3684;DHT22;1858;48.716;9.648;2023-05-10T10:06:00;17.70;1.00
3684;DHT22;1858;48.716;9.648;2023-05-10T10:08:34;17.40;1.00
3684;DHT22;1858;48.716;9.648;2023-05-10T10:11:03;17.20;30.10
3684;DHT22;1858;48.716;9.648;2023-05-10T10:13:31;17.20;99.90
3684;DHT22;1858;48.716;9.648;2023-05-10T10:16:02;17.20;99.90
3684;DHT22;1858;48.716;9.648;2023-05-10T10:18:31;17.30;99.90
3684;DHT22;1858;48.716;9.648;2023-05-10T10:21:06;17.30;99.90
3684;DHT22;1858;48.716;9.648;2023-05-10T10:23:42;17.40;99.90
3684;DHT22;1858;48.716;9.648;2023-05-10T10:26:17;17.70;99.90
3684;DHT22;1858;48.716;9.648;2023-05-10T10:29:30;17.90;99.90
3684;DHT22;1858;48.716;9.648;2023-05-10T10:32:25;18.20;99.90
3684;DHT22;1858;48.716;9.648;2023-05-10T10:34:59;18.40;46.80
3684;DHT22;1858;48.716;9.648;2023-05-10T10:37:45;18.20;40.90
3684;DHT22;1858;48.716;9.648;2023-05-10T10:40:31;18.30;1.00
3684;DHT22;1858;48.716;9.648;2023-05-10T10:43:24;18.40;1.00
3684;DHT22;1858;48.716;9.648;2023-05-10T10:46:19;18.30;1.00
3684;DHT22;1858;48.716;9.648;2023-05-10T10:49:12;18.00;1.00
3684;DHT22;1858;48.716;9.648;2023-05-10T10:52:22;18.00;17.60
3684;DHT22;1858;48.716;9.648;2023-05-10T10:55:02;18.00;22.40
3684;DHT22;1858;48.716;9.648;2023-05-10T10:57:55;18.00;31.70
3684;DHT22;1858;48.716;9.648;2023-05-10T11:00:36;18.00;28.60
3684;DHT22;1858;48.716;9.648;2023-05-10T11:03:31;18.20;32.70
3684;DHT22;1858;48.716;9.648;2023-05-10T11:06:00;18.30;59.60
3684;DHT22;1858;48.716;9.648;2023-05-10T11:08:32;18.40;40.00
3684;DHT22;1858;48.716;9.648;2023-05-10T11:11:04;18.70;5.20
3684;DHT22;1858;48.716;9.648;2023-05-10T11:13:41;18.80;1.00
3684;DHT22;1858;48.716;9.648;2023-05-10T11:18:56;18.90;1.00
3684;DHT22;1858;48.716;9.648;2023-05-10T11:21:20;18.90;1.00
3684;DHT22;1858;48.716;9.648;2023-05-10T11:23:54;19.10;1.00
3684;DHT22;1858;48.716;9.648;2023-05-10T11:26:37;19.30;1.00
3684;DHT22;1858;48.716;9.648;2023-05-10T11:29:04;19.50;1.00
3684;DHT22;1858;48.716;9.648;2023-05-10T11:31:34;19.60;1.00
3684;DHT22;1858;48.716;9.648;2023-05-10T11:34:08;19.80;1.00
3684;DHT22;1858;48.716;9.648;2023-05-10T11:36:37;20.00;1.00
3684;DHT22;1858;48.716;9.648;2023-05-10T11:39:15;20.10;1.00
3684;DHT22;1858;48.716;9.648;2023-05-10T11:41:40;20.20;1.00
3684;DHT22;1858;48.716;9.648;2023-05-10T11:44:19;20.20;1.00
3684;DHT22;1858;48.716;9.648;2023-05-10T11:49:22;20.40;1.00
3684;DHT22;1858;48.716;9.648;2023-05-10T11:52:07;20.60;1.00
3684;DHT22;1858;48.716;9.648;2023-05-10T11:57:34;20.80;1.00
3684;DHT22;1858;48.716;9.648;2023-05-10T12:00:13;20.70;1.00
3684;DHT22;1858;48.716;9.648;2023-05-10T12:02:42;20.40;1.00
3684;DHT22;1858;48.716;9.648;2023-05-10T12:05:12;20.30;1.00
3684;DHT22;1858;48.716;9.648;2023-05-10T12:07:42;20.10;1.00
3684;DHT22;1858;48.716;9.648;2023-05-10T12:10:12;19.70;1.00
3684;DHT22;1858;48.716;9.648;2023-05-10T12:12:44;19.30;1.00
3684;DHT22;1858;48.716;9.648;2023-05-10T12:15:21;18.80;1.00
3684;DHT22;1858;48.716;9.648;2023-05-10T12:17:52;18.30;1.00
3684;DHT22;1858;48.716;9.648;2023-05-10T12:20:27;17.70;1.00
3684;DHT22;1858;48.716;9.648;2023-05-10T12:22:56;17.30;1.00
3684;DHT22;1858;48.716;9.648;2023-05-10T12:25:31;17.10;1.00
3684;DHT22;1858;48.716;9.648;2023-05-10T12:28:06;16.80;1.00
3684;DHT22;1858;48.716;9.648;2023-05-10T12:30:40;16.70;1.00
3684;DHT22;1858;48.716;9.648;2023-05-10T12:33:11;16.40;1.00
3684;DHT22;1858;48.716;9.648;2023-05-10T12:35:50;16.10;1.00
3684;DHT22;1858;48.716;9.648;2023-05-10T12:38:33;15.50;21.30
3684;DHT22;1858;48.716;9.648;2023-05-10T12:41:09;15.20;82.30
3684;DHT22;1858;48.716;9.648;2023-05-10T12:43:44;15.00;99.90
3684;DHT22;1858;48.716;9.648;2023-05-10T12:46:17;14.90;99.90
3684;DHT22;1858;48.716;9.648;2023-05-10T12:48:47;14.70;99.90
3684;DHT22;1858;48.716;9.648;2023-05-10T12:51:19;14.60;99.90
3684;DHT22;1858;48.716;9.648;2023-05-10T12:53:59;14.60;1.00
3684;DHT22;1858;48.716;9.648;2023-05-10T12:56:33;14.60;99.90
3684;DHT22;1858;48.716;9.648;2023-05-10T12:59:02;14.70;99.90
3684;DHT22;1858;48.716;9.648;2023-05-10T13:01:31;14.80;99.90
3684;DHT22;1858;48.716;9.648;2023-05-10T13:04:01;14.80;99.90
3684;DHT22;1858;48.716;9.648;2023-05-10T13:06:30;14.80;99.90
3684;DHT22;1858;48.716;9.648;2023-05-10T13:08:59;14.90;99.90
3684;DHT22;1858;48.716;9.648;2023-05-10T13:11:29;14.90;99.90
3684;DHT22;1858;48.716;9.648;2023-05-10T13:13:58;15.00;99.90
3684;DHT22;1858;48.716;9.648;2023-05-10T13:16:27;15.20;99.90
3684;DHT22;1858;48.716;9.648;2023-05-10T13:18:55;15.40;99.90
3684;DHT22;1858;48.716;9.648;2023-05-10T13:21:27;15.60;99.90
3684;DHT22;1858;48.716;9.648;2023-05-10T13:23:56;15.80;99.90
3684;DHT22;1858;48.716;9.648;2023-05-10T13:26:26;16.10;99.90
3684;DHT22;1858;48.716;9.648;2023-05-10T13:28:54;16.30;99.90
3684;DHT22;1858;48.716;9.648;2023-05-10T13:31:25;16.60;99.90
3684;DHT22;1858;48.716;9.648;2023-05-10T13:34:00;16.90;97.10
3684;DHT22;1858;48.716;9.648;2023-05-10T13:36:27;17.10;99.90
3684;DHT22;1858;48.716;9.648;2023-05-10T13:38:55;17.40;16.60
3684;DHT22;1858;48.716;9.648;2023-05-10T13:41:29;17.60;8.50
3684;DHT22;1858;48.716;9.648;2023-05-10T13:44:03;17.80;17.00
3684;DHT22;1858;48.716;9.648;2023-05-10T13:46:37;18.00;1.00
3684;DHT22;1858;48.716;9.648;2023-05-10T13:49:06;17.90;1.00
3684;DHT22;1858;48.716;9.648;2023-05-10T13:51:36;17.80;1.00
3684;DHT22;1858;48.716;9.648;2023-05-10T13:54:06;18.00;1.00
3684;DHT22;1858;48.716;9.648;2023-05-10T13:56:34;18.10;1.00
3684;DHT22;1858;48.716;9.648;2023-05-10T13:59:03;18.30;1.00
3684;DHT22;1858;48.716;9.648;2023-05-10T14:01:32;18.40;1.00
3684;DHT22;1858;48.716;9.648;2023-05-10T14:04:01;18.50;1.00
3684;DHT22;1858;48.716;9.648;2023-05-10T14:06:30;18.60;1.00
3684;DHT22;1858;48.716;9.648;2023-05-10T14:09:05;18.70;1.00
3684;DHT22;1858;48.716;9.648;2023-05-10T14:11:34;18.90;1.00
3684;DHT22;1858;48.716;9.648;2023-05-10T14:14:03;19.00;1.00
3684;DHT22;1858;48.716;9.648;2023-05-10T14:19:12;19.10;1.00
3684;DHT22;1858;48.716;9.648;2023-05-10T14:21:45;19.10;1.00
3684;DHT22;1858;48.716;9.648;2023-05-10T14:24:17;19.20;1.00
3684;DHT22;1858;48.716;9.648;2023-05-10T14:26:45;19.20;1.00
3684;DHT22;1858;48.716;9.648;2023-05-10T14:29:14;19.30;1.00
3684;DHT22;1858;48.716;9.648;2023-05-10T14:31:43;19.30;1.00
3684;DHT22;1858;48.716;9.648;2023-05-10T14:34:12;19.30;1.00
3684;DHT22;1858;48.716;9.648;2023-05-10T14:36:40;19.40;1.00
3684;DHT22;1858;48.716;9.648;2023-05-10T14:39:10;19.20;1.00
3684;DHT22;1858;48.716;9.648;2023-05-10T14:41:40;19.20;1.00
3684;DHT22;1858;48.716;9.648;2023-05-10T14:44:21;19.30;1.00
3684;DHT22;1858;48.716;9.648;2023-05-10T14:46:49;19.30;1.00
3684;DHT22;1858;48.716;9.648;2023-05-10T14:49:19;19.20;1.00
3684;DHT22;1858;48.716;9.648;2023-05-10T14:54:50;19.30;1.00
3684;DHT22;1858;48.716;9.648;2023-05-10T14:57:34;19.30;1.00
3684;DHT22;1858;48.716;9.648;2023-05-10T15:00:01;19.30;1.00
3684;DHT22;1858;48.716;9.648;2023-05-10T15:02:33;19.40;1.00
3684;DHT22;1858;48.716;9.648;2023-05-10T15:05:06;19.40;1.00
3684;DHT22;1858;48.716;9.648;2023-05-10T15:07:36;19.40;1.00
3684;DHT22;1858;48.716;9.648;2023-05-10T15:10:29;19.40;1.00
3684;DHT22;1858;48.716;9.648;2023-05-10T15:12:59;19.30;1.00
3684;DHT22;1858;48.716;9.648;2023-05-10T15:15:29;19.30;99.90
3684;DHT22;1858;48.716;9.648;2023-05-10T15:18:02;19.30;1.00
3684;DHT22;1858;48.716;9.648;2023-05-10T15:20:44;19.30;1.00
3684;DHT22;1858;48.716;9.648;2023-05-10T15:23:11;19.20;1.00
3684;DHT22;1858;48.716;9.648;2023-05-10T15:25:45;19.20;1.00
3684;DHT22;1858;48.716;9.648;2023-05-10T15:30:52;19.10;1.00
3684;DHT22;1858;48.716;9.648;2023-05-10T15:33:21;19.20;1.00
3684;DHT22;1858;48.716;9.648;2023-05-10T15:36:10;19.20;1.00
3684;DHT22;1858;48.716;9.648;2023-05-10T15:38:31;19.10;1.00
3684;DHT22;1858;48.716;9.648;2023-05-10T15:41:03;19.00;1.00
3684;DHT22;1858;48.716;9.648;2023-05-10T15:43:46;18.90;1.00
3684;DHT22;1858;48.716;9.648;2023-05-10T15:46:11;18.90;1.00
3684;DHT22;1858;48.716;9.648;2023-05-10T15:52:06;18.80;1.00
3684;DHT22;1858;48.716;9.648;2023-05-10T15:54:37;18.70;1.00
3684;DHT22;1858;48.716;9.648;2023-05-10T15:57:11;18.70;1.00
3684;DHT22;1858;48.716;9.648;2023-05-10T15:59:38;18.70;1.00
3684;DHT22;1858;48.716;9.648;2023-05-10T16:02:11;18.70;1.00
3684;DHT22;1858;48.716;9.648;2023-05-10T16:04:49;18.70;1.00
3684;DHT22;1858;48.716;9.648;2023-05-10T16:07:17;18.70;1.00
3684;DHT22;1858;48.716;9.648;2023-05-10T16:10:07;18.70;1.00
3684;DHT22;1858;48.716;9.648;2023-05-10T16:12:34;18.70;1.00
3684;DHT22;1858;48.716;9.648;2023-05-10T16:15:06;18.70;1.00
3684;DHT22;1858;48.716;9.648;2023-05-10T16:17:38;18.70;1.00
3684;DHT22;1858;48.716;9.648;2023-05-10T16:20:14;18.60;1.00
3684;DHT22;1858;48.716;9.648;2023-05-10T16:22:44;18.60;1.00
3684;DHT22;1858;48.716;9.648;2023-05-10T16:25:18;18.50;1.00
3684;DHT22;1858;48.716;9.648;2023-05-10T16:27:49;18.50;1.00
3684;DHT22;1858;48.716;9.648;2023-05-10T16:30:18;18.40;1.00
3684;DHT22;1858;48.716;9.648;2023-05-10T16:32:47;18.40;1.00
3684;DHT22;1858;48.716;9.648;2023-05-10T16:35:27;18.30;1.00
3684;DHT22;1858;48.716;9.648;2023-05-10T16:37:56;18.20;1.00
3684;DHT22;1858;48.716;9.648;2023-05-10T16:40:33;18.10;1.00
3684;DHT22;1858;48.716;9.648;2023-05-10T16:43:01;18.00;1.00
3684;DHT22;1858;48.716;9.648;2023-05-10T16:45:41;18.00;1.00
3684;DHT22;1858;48.716;9.648;2023-05-10T16:50:42;17.90;1.00
3684;DHT22;1858;48.716;9.648;2023-05-10T16:53:21;17.80;1.00
3684;DHT22;1858;48.716;9.648;2023-05-10T16:56:04;17.80;1.00
3684;DHT22;1858;48.716;9.648;2023-05-10T16:58:39;17.80;1.00
3684;DHT22;1858;48.716;9.648;2023-05-10T17:01:11;17.80;1.00
3684;DHT22;1858;48.716;9.648;2023-05-10T17:03:45;17.70;1.00
3684;DHT22;1858;48.716;9.648;2023-05-10T17:06:29;17.70;1.00
3684;DHT22;1858;48.716;9.648;2023-05-10T17:08:55;17.60;1.00
3684;DHT22;1858;48.716;9.648;2023-05-10T17:11:49;17.50;1.00
3684;DHT22;1858;48.716;9.648;2023-05-10T17:14:21;17.40;1.00
3684;DHT22;1858;48.716;9.648;2023-05-10T17:16:50;17.30;1.00
3684;DHT22;1858;48.716;9.648;2023-05-10T17:19:19;17.30;1.00
3684;DHT22;1858;48.716;9.648;2023-05-10T17:21:57;17.20;1.00
3684;DHT22;1858;48.716;9.648;2023-05-10T17:24:43;17.20;1.00